createdAt,value
2023-04-16T00:01:12.618Z,50.50
2023-04-16T00:03:39.823Z,57.92
2023-04-16T00:06:07.219Z,56.25
2023-04-16T00:08:35.914Z,49.47
2023-04-16T00:11:03.091Z,57.22
2023-04-16T00:13:30.285Z,54.08
2023-04-16T00:15:57.455Z,51.38
2023-04-16T00:18:24.650Z,54.83
2023-04-16T00:20:53.448Z,53.20
2023-04-16T00:23:21.279Z,53.05
2023-04-16T00:25:48.423Z,58.33
2023-04-16T00:28:15.631Z,57.97
2023-04-16T00:30:43.076Z,55.30
2023-04-16T00:33:10.186Z,55.20
2023-04-16T00:35:37.291Z,54.15
2023-04-16T00:38:04.485Z,52.20
2023-04-16T00:40:31.613Z,53.67
2023-04-16T00:42:58.709Z,53.63
2023-04-16T00:45:25.919Z,57.35
2023-04-16T00:47:53.066Z,56.50
2023-04-16T00:50:20.333Z,55.78
2023-04-16T00:52:48.111Z,56.40
2023-04-16T00:55:17.640Z,53.38
2023-04-16T00:57:45.039Z,55.80
2023-04-16T01:00:12.823Z,57.33
2023-04-16T01:02:40.220Z,54.17
2023-04-16T01:05:07.524Z,56.53
2023-04-16T01:07:34.639Z,56.20
2023-04-16T01:10:01.748Z,51.55
2023-04-16T01:12:28.979Z,50.70
2023-04-16T01:14:56.205Z,53.58
2023-04-16T01:17:23.339Z,56.67
2023-04-16T01:19:50.698Z,52.03
2023-04-16T01:22:17.834Z,57.45
2023-04-16T01:24:45.518Z,53.75
2023-04-16T01:27:12.688Z,53.83
2023-04-16T01:29:39.887Z,58.03
2023-04-16T01:32:07.020Z,56.45
2023-04-16T01:34:34.088Z,56.15
2023-04-16T01:37:01.256Z,58.13
2023-04-16T01:39:28.381Z,56.20
2023-04-16T01:41:55.621Z,54.92
2023-04-16T01:44:23.236Z,55.53
2023-04-16T01:46:50.383Z,59.92
2023-04-16T01:49:17.550Z,57.03
2023-04-16T01:51:44.661Z,57.63
2023-04-16T01:54:11.751Z,56.45
2023-04-16T01:56:38.878Z,63.90
2023-04-16T01:59:06.134Z,54.80
2023-04-16T02:01:33.265Z,56.65
2023-04-16T02:04:00.657Z,61.35
2023-04-16T02:06:27.926Z,58.90
2023-04-16T02:08:55.056Z,59.28
2023-04-16T02:11:22.215Z,64.57
2023-04-16T02:13:49.328Z,57.90
2023-04-16T02:16:16.481Z,58.50
2023-04-16T02:18:43.603Z,59.75
2023-04-16T02:21:10.899Z,69.07
2023-04-16T02:23:41.021Z,59.53
2023-04-16T02:26:08.183Z,65.95
2023-04-16T02:28:35.645Z,61.75
2023-04-16T02:31:02.807Z,58.53
2023-04-16T02:33:31.812Z,64.10
2023-04-16T02:35:59.022Z,59.80
2023-04-16T02:38:26.106Z,60.13
2023-04-16T02:40:53.213Z,62.70
2023-04-16T02:43:20.365Z,64.15
2023-04-16T02:45:47.501Z,57.92
2023-04-16T02:48:14.580Z,56.67
2023-04-16T02:50:41.683Z,58.00
2023-04-16T02:53:10.469Z,64.05
2023-04-16T02:55:37.606Z,64.20
2023-04-16T02:58:04.749Z,61.65
2023-04-16T03:00:31.875Z,67.38
2023-04-16T03:02:59.094Z,62.08
2023-04-16T03:05:26.380Z,60.58
2023-04-16T03:07:56.718Z,60.28
2023-04-16T03:10:24.211Z,50.15
2023-04-16T03:12:51.425Z,58.72
2023-04-16T03:15:18.678Z,59.78
2023-04-16T03:17:46.080Z,59.75
2023-04-16T03:20:14.508Z,61.50
2023-04-16T03:22:41.592Z,60.08
2023-04-16T03:25:09.003Z,60.80
2023-04-16T03:27:36.232Z,63.13
2023-04-16T03:30:03.412Z,62.95
2023-04-16T03:32:30.593Z,57.78
2023-04-16T03:34:57.778Z,60.30
2023-04-16T03:37:24.881Z,55.72
2023-04-16T03:39:52.103Z,59.97
2023-04-16T03:42:19.251Z,61.45
2023-04-16T03:44:46.387Z,57.53
2023-04-16T03:47:13.482Z,64.00
2023-04-16T03:49:40.654Z,53.15
2023-04-16T03:52:07.745Z,59.80
2023-04-16T03:54:34.833Z,53.92
2023-04-16T03:57:02.449Z,62.83
2023-04-16T03:59:29.567Z,56.28
2023-04-16T04:01:56.717Z,59.22
2023-04-16T04:04:24.056Z,46.97
2023-04-16T04:06:51.206Z,54.85
2023-04-16T04:09:18.300Z,53.10
2023-04-16T04:11:45.587Z,47.03
2023-04-16T04:14:12.693Z,50.60
2023-04-16T04:16:39.864Z,52.00
2023-04-16T04:19:07.191Z,52.55
2023-04-16T04:21:34.500Z,48.67
2023-04-16T04:24:01.576Z,49.60
2023-04-16T04:26:28.816Z,48.33
2023-04-16T04:28:55.944Z,46.13
2023-04-16T04:31:23.077Z,47.40
2023-04-16T04:33:50.226Z,46.90
2023-04-16T04:36:17.364Z,42.70
2023-04-16T04:38:44.442Z,45.75
2023-04-16T04:41:11.610Z,47.65
2023-04-16T04:43:38.750Z,49.47
2023-04-16T04:46:05.952Z,45.65
2023-04-16T04:48:33.140Z,44.13
2023-04-16T04:51:00.786Z,48.20
2023-04-16T04:53:28.300Z,45.70
2023-04-16T04:55:57.478Z,47.85
2023-04-16T04:58:32.391Z,48.95
2023-04-16T05:00:59.577Z,44.33
2023-04-16T05:03:26.739Z,43.63
2023-04-16T05:05:53.863Z,46.83
2023-04-16T05:08:21.130Z,46.55
2023-04-16T05:10:48.188Z,45.22
2023-04-16T05:13:15.294Z,40.28
2023-04-16T05:15:42.511Z,39.95
2023-04-16T05:18:09.593Z,46.40
2023-04-16T05:20:37.770Z,44.20
2023-04-16T05:23:04.949Z,43.25
2023-04-16T05:25:32.099Z,50.85
2023-04-16T05:27:59.184Z,42.38
2023-04-16T05:30:26.282Z,38.78
2023-04-16T05:32:53.507Z,43.17
2023-04-16T05:35:20.694Z,43.53
2023-04-16T05:37:47.845Z,48.70
2023-04-16T05:40:15.049Z,44.85
2023-04-16T05:42:42.144Z,43.30
2023-04-16T05:45:09.540Z,42.65
2023-04-16T05:47:36.673Z,38.60
2023-04-16T05:50:03.811Z,42.80
2023-04-16T05:52:30.991Z,45.22
2023-04-16T05:55:01.288Z,40.75
2023-04-16T05:57:31.141Z,37.80
2023-04-16T05:59:58.251Z,36.90
2023-04-16T06:02:25.681Z,41.58
2023-04-16T06:04:52.953Z,38.95
2023-04-16T06:07:20.027Z,36.53
2023-04-16T06:09:47.179Z,34.75
2023-04-16T06:12:14.326Z,37.70
2023-04-16T06:14:41.388Z,39.42
2023-04-16T06:17:08.478Z,37.17
2023-04-16T06:19:35.619Z,37.03
2023-04-16T06:22:02.888Z,33.75
2023-04-16T06:24:29.960Z,36.92
2023-04-16T06:26:57.492Z,30.38
2023-04-16T06:29:36.983Z,30.40
2023-04-16T06:32:08.170Z,32.28
2023-04-16T06:34:35.298Z,33.88
2023-04-16T06:37:02.421Z,30.45
2023-04-16T06:39:29.545Z,37.22
2023-04-16T06:41:57.132Z,30.67
2023-04-16T06:44:24.223Z,38.53
2023-04-16T06:46:51.694Z,30.90
2023-04-16T06:49:18.857Z,32.15
2023-04-16T06:51:46.011Z,30.90
2023-04-16T06:54:13.122Z,29.58
2023-04-16T06:56:40.356Z,33.33
2023-04-16T06:59:07.895Z,28.77
2023-04-16T07:01:35.312Z,29.45
2023-04-16T07:04:02.666Z,28.27
2023-04-16T07:06:29.984Z,32.88
2023-04-16T07:08:57.120Z,30.02
2023-04-16T07:11:25.781Z,29.92
2023-04-16T07:13:53.860Z,30.58
2023-04-16T07:16:21.284Z,31.27
2023-04-16T07:18:48.386Z,29.92
2023-04-16T07:21:15.613Z,33.85
2023-04-16T07:23:42.752Z,35.00
2023-04-16T07:26:10.518Z,35.63
2023-04-16T07:28:37.573Z,35.85
2023-04-16T07:31:04.987Z,34.67
2023-04-16T07:33:32.056Z,35.90
2023-04-16T07:35:59.171Z,41.70
2023-04-16T07:38:26.332Z,43.15
2023-04-16T07:40:53.451Z,45.85
2023-04-16T07:43:20.739Z,41.08
2023-04-16T07:45:48.464Z,39.45
2023-04-16T07:48:15.590Z,40.65
2023-04-16T07:50:43.646Z,36.40
2023-04-16T07:53:10.886Z,38.50
2023-04-16T07:55:38.081Z,37.05
2023-04-16T07:58:07.239Z,38.42
2023-04-16T08:00:34.421Z,41.80
2023-04-16T08:03:01.668Z,41.55
2023-04-16T08:05:29.044Z,42.60
2023-04-16T08:07:56.521Z,39.75
2023-04-16T08:10:23.637Z,41.25
2023-04-16T08:12:50.856Z,39.58
2023-04-16T08:15:18.004Z,34.90
2023-04-16T08:17:45.525Z,39.22
2023-04-16T08:20:15.768Z,38.58
2023-04-16T08:22:45.993Z,37.92
2023-04-16T08:25:13.081Z,37.33
2023-04-16T08:27:40.180Z,43.72
2023-04-16T08:30:08.354Z,39.50
2023-04-16T08:32:35.504Z,36.45
2023-04-16T08:35:02.870Z,37.88
2023-04-16T08:37:29.996Z,39.80
2023-04-16T08:39:57.082Z,37.70
2023-04-16T08:42:43.670Z,42.58
2023-04-16T08:45:20.144Z,37.45
2023-04-16T08:47:49.005Z,39.22
2023-04-16T08:50:16.965Z,41.17
2023-04-16T08:52:47.224Z,40.50
2023-04-16T08:55:14.868Z,42.35
2023-04-16T08:57:49.555Z,37.05
2023-04-16T09:00:16.886Z,39.08
2023-04-16T09:02:44.605Z,40.97
2023-04-16T09:05:16.954Z,42.55
2023-04-16T09:07:47.567Z,44.03
2023-04-16T09:10:16.446Z,41.95
2023-04-16T09:12:43.754Z,43.55
2023-04-16T09:15:11.657Z,42.83
2023-04-16T09:17:39.335Z,43.28
2023-04-16T09:20:08.758Z,48.08
2023-04-16T09:22:36.675Z,51.05
2023-04-16T09:25:03.837Z,48.55
2023-04-16T09:27:31.771Z,39.95
2023-04-16T09:29:59.129Z,44.20
2023-04-16T09:32:30.506Z,45.50
2023-04-16T09:37:25.679Z,48.35
2023-04-16T09:39:56.985Z,45.42
2023-04-16T09:44:52.345Z,49.40
2023-04-16T09:47:19.545Z,46.33
2023-04-16T09:49:47.211Z,45.17
2023-04-16T09:52:15.572Z,45.42
2023-04-16T09:54:48.507Z,44.67
2023-04-16T09:57:16.292Z,51.13
2023-04-16T09:59:43.366Z,50.42
2023-04-16T10:02:14.774Z,48.08
2023-04-16T10:04:50.187Z,50.65
2023-04-16T10:07:17.946Z,45.38
2023-04-16T10:09:45.432Z,50.00
2023-04-16T10:12:12.908Z,51.30
2023-04-16T10:14:40.857Z,53.22
2023-04-16T10:17:08.844Z,48.85
2023-04-16T10:19:36.329Z,52.95
2023-04-16T10:22:04.097Z,55.17
2023-04-16T10:24:32.006Z,56.72
2023-04-16T10:26:59.774Z,53.25
2023-04-16T10:29:28.192Z,51.88
2023-04-16T10:31:56.722Z,53.97
2023-04-16T10:34:25.125Z,51.20
2023-04-16T10:36:52.973Z,49.92
2023-04-16T10:39:21.527Z,56.28
2023-04-16T10:41:48.900Z,53.13
2023-04-16T10:44:18.236Z,51.00
2023-04-16T10:46:51.551Z,52.00
2023-04-16T10:49:19.963Z,59.13
2023-04-16T10:51:57.657Z,50.92
2023-04-16T10:54:25.585Z,56.90
2023-04-16T10:56:53.599Z,55.10
2023-04-16T10:59:21.894Z,63.20
2023-04-16T11:01:53.298Z,52.70
2023-04-16T11:04:20.798Z,53.13
2023-04-16T11:07:07.024Z,53.08
2023-04-16T11:09:52.814Z,57.33
2023-04-16T11:12:21.316Z,56.70
2023-04-16T11:14:52.533Z,56.15
2023-04-16T11:19:47.084Z,58.90
2023-04-16T11:22:16.987Z,54.17
2023-04-16T11:24:45.083Z,55.53
2023-04-16T11:27:13.154Z,54.17
2023-04-16T11:29:40.355Z,56.35
2023-04-16T11:32:07.637Z,63.17
2023-04-16T11:34:35.160Z,55.45
2023-04-16T11:37:02.369Z,51.80
2023-04-16T11:39:29.511Z,52.35
2023-04-16T11:41:56.698Z,51.13
2023-04-16T11:44:25.193Z,48.35
2023-04-16T11:46:53.436Z,48.00
2023-04-16T11:49:32.758Z,50.83
2023-04-16T11:52:00.768Z,51.60
2023-04-16T11:54:34.641Z,46.90
2023-04-16T11:57:04.298Z,47.45
2023-04-16T11:59:31.619Z,50.75
2023-04-16T12:01:58.877Z,46.08
2023-04-16T12:04:27.018Z,52.40
2023-04-16T12:07:12.347Z,52.97
2023-04-16T12:09:41.097Z,47.55
2023-04-16T12:12:26.355Z,51.95
2023-04-16T12:14:54.462Z,53.58
2023-04-16T12:17:21.824Z,53.47
2023-04-16T12:19:52.956Z,55.47
2023-04-16T12:22:27.729Z,57.30
2023-04-16T12:25:01.215Z,53.38
2023-04-16T12:27:41.625Z,49.25
2023-04-16T12:30:09.041Z,48.80
2023-04-16T12:32:36.454Z,64.05
2023-04-16T12:35:03.924Z,60.97
2023-04-16T12:37:31.504Z,58.15
2023-04-16T12:39:58.623Z,58.25
2023-04-16T12:42:25.814Z,55.90
2023-04-16T12:44:53.166Z,47.65
2023-04-16T12:47:20.426Z,49.00
2023-04-16T12:49:47.588Z,59.60
2023-04-16T12:52:14.725Z,68.60
2023-04-16T12:54:41.778Z,67.28
2023-04-16T12:57:08.832Z,68.43
2023-04-16T12:59:36.056Z,62.10
2023-04-16T13:02:03.489Z,59.65
2023-04-16T13:04:30.881Z,55.47
2023-04-16T13:06:58.097Z,57.42
2023-04-16T13:09:25.280Z,63.83
2023-04-16T13:11:52.373Z,70.82
2023-04-16T13:14:20.846Z,72.95
2023-04-16T13:16:47.965Z,76.10
2023-04-16T13:19:15.938Z,77.10
2023-04-16T13:21:43.079Z,73.72
2023-04-16T13:24:10.315Z,59.42
2023-04-16T13:26:37.437Z,58.58
2023-04-16T13:29:04.578Z,58.15
2023-04-16T13:31:31.770Z,57.30
2023-04-16T13:33:59.132Z,56.53
2023-04-16T13:36:27.791Z,49.17
2023-04-16T13:38:55.044Z,48.00
2023-04-16T13:41:22.129Z,48.38
2023-04-16T13:43:49.275Z,45.05
2023-04-16T13:46:16.437Z,43.75
2023-04-16T13:48:43.535Z,48.53
2023-04-16T13:51:10.815Z,48.17
2023-04-16T13:53:37.911Z,45.47
2023-04-16T13:56:05.437Z,43.70
2023-04-16T13:58:32.752Z,49.17
2023-04-16T14:01:00.001Z,52.50
2023-04-16T14:03:27.233Z,50.90
2023-04-16T14:05:54.434Z,49.30
2023-04-16T14:08:21.542Z,44.03
2023-04-16T14:10:48.928Z,42.78
2023-04-16T14:13:16.361Z,44.47
2023-04-16T14:15:43.477Z,47.45
2023-04-16T14:18:10.676Z,48.00
2023-04-16T14:20:39.846Z,54.22
2023-04-16T14:23:08.180Z,50.60
2023-04-16T14:25:35.337Z,52.80
2023-04-16T14:28:02.494Z,50.55
2023-04-16T14:30:29.614Z,51.95
2023-04-16T14:32:56.764Z,51.35
2023-04-16T14:35:24.331Z,54.55
2023-04-16T14:37:51.495Z,52.53
2023-04-16T14:40:18.662Z,49.63
2023-04-16T14:42:45.872Z,50.35
2023-04-16T14:45:13.092Z,49.95
2023-04-16T14:47:45.880Z,43.78
2023-04-16T14:50:13.454Z,41.92
2023-04-16T14:52:40.687Z,45.40
2023-04-16T14:55:07.994Z,55.50
2023-04-16T14:57:35.647Z,50.30
2023-04-16T15:00:07.517Z,54.40
2023-04-16T15:02:35.617Z,49.88
2023-04-16T15:05:02.904Z,49.40
2023-04-16T15:07:30.147Z,47.97
2023-04-16T15:09:57.243Z,50.25
2023-04-16T15:12:24.872Z,49.50
2023-04-16T15:14:51.972Z,50.95
2023-04-16T15:17:19.112Z,53.00
2023-04-16T15:19:46.276Z,50.35
2023-04-16T15:22:14.737Z,55.97
2023-04-16T15:24:41.812Z,60.75
2023-04-16T15:27:11.578Z,61.60
2023-04-16T15:29:39.027Z,62.88
2023-04-16T15:32:07.026Z,65.30
2023-04-16T15:34:34.214Z,62.75
2023-04-16T15:37:01.394Z,58.92
2023-04-16T15:39:28.557Z,56.22
2023-04-16T15:42:00.448Z,60.97
2023-04-16T15:44:28.733Z,64.53
2023-04-16T15:46:55.855Z,58.85
2023-04-16T15:49:23.426Z,57.45
2023-04-16T15:51:50.779Z,55.67
2023-04-16T15:54:20.758Z,57.30
2023-04-16T15:56:47.962Z,49.50
2023-04-16T15:59:15.095Z,54.05
2023-04-16T16:01:42.264Z,61.47
2023-04-16T16:04:09.666Z,56.28
2023-04-16T16:06:38.155Z,58.50
2023-04-16T16:09:05.391Z,59.15
2023-04-16T16:11:32.770Z,61.72
2023-04-16T16:14:02.888Z,63.33
2023-04-16T16:16:30.065Z,59.58
2023-04-16T16:18:57.258Z,58.92
2023-04-16T16:21:24.409Z,61.10
2023-04-16T16:23:51.678Z,60.80
2023-04-16T16:26:20.836Z,69.57
2023-04-16T16:28:48.002Z,59.40
2023-04-16T16:31:15.120Z,60.90
2023-04-16T16:33:42.424Z,48.40
2023-04-16T16:36:11.056Z,43.38
2023-04-16T16:38:39.940Z,43.45
2023-04-16T16:41:07.359Z,50.65
2023-04-16T16:43:36.329Z,44.72
2023-04-16T16:46:03.574Z,49.83
2023-04-16T16:48:30.726Z,48.90
2023-04-16T16:50:57.804Z,45.15
2023-04-16T16:53:24.945Z,53.88
2023-04-16T16:55:52.111Z,52.58
2023-04-16T16:58:19.227Z,50.30
2023-04-16T17:00:46.393Z,48.13
2023-04-16T17:03:13.748Z,48.70
2023-04-16T17:05:41.339Z,48.30
2023-04-16T17:08:08.445Z,46.47
2023-04-16T17:10:36.135Z,46.88
2023-04-16T17:13:03.263Z,49.15
2023-04-16T17:15:30.410Z,51.97
2023-04-16T17:17:57.547Z,57.75
2023-04-16T17:20:24.695Z,82.93
2023-04-16T17:22:51.785Z,54.67
2023-04-16T17:25:18.959Z,49.95
2023-04-16T17:27:46.413Z,57.63
2023-04-16T17:30:13.624Z,56.70
2023-04-16T17:32:40.922Z,52.00
2023-04-16T17:35:09.418Z,53.78
2023-04-16T17:37:36.550Z,54.90
2023-04-16T17:40:07.469Z,51.92
2023-04-16T17:42:35.480Z,53.50
2023-04-16T17:45:02.837Z,52.40
2023-04-16T17:47:30.008Z,56.58
2023-04-16T17:49:57.105Z,56.33
2023-04-16T17:52:24.194Z,54.30
2023-04-16T17:54:53.156Z,52.40
2023-04-16T17:57:20.296Z,55.95
2023-04-16T17:59:47.379Z,50.40
2023-04-16T18:02:14.687Z,54.35
2023-04-16T18:04:42.418Z,51.15
2023-04-16T18:07:09.632Z,57.85
2023-04-16T18:09:37.060Z,53.50
2023-04-16T18:12:04.226Z,50.72
2023-04-16T18:14:31.331Z,52.78
2023-04-16T18:16:58.465Z,50.53
2023-04-16T18:19:25.528Z,51.33
2023-04-16T18:21:52.700Z,50.67
2023-04-16T18:24:19.812Z,49.25
2023-04-16T18:39:58.107Z,55.88
2023-04-16T18:42:28.133Z,53.58
2023-04-16T18:44:55.437Z,50.40
2023-04-16T18:47:22.620Z,49.00
2023-04-16T18:49:49.832Z,47.67
2023-04-16T18:52:16.948Z,47.08
2023-04-16T18:54:44.036Z,49.33
2023-04-16T18:57:11.123Z,41.75
2023-04-16T18:59:38.189Z,41.08
2023-04-16T19:02:05.372Z,45.45
2023-04-16T19:04:32.574Z,36.97
2023-04-16T19:06:59.686Z,32.95
2023-04-16T19:09:27.201Z,43.17
2023-04-16T19:11:54.381Z,47.03
2023-04-16T19:14:21.654Z,39.80
2023-04-16T19:16:48.811Z,38.25
2023-04-16T19:19:16.142Z,39.92
2023-04-16T19:21:43.209Z,39.95
2023-04-16T19:24:10.608Z,39.60
2023-04-16T19:26:37.701Z,37.05
2023-04-16T19:29:04.790Z,38.58
2023-04-16T19:31:31.954Z,37.53
2023-04-16T19:33:59.114Z,35.60
2023-04-16T19:36:26.517Z,37.90
2023-04-16T19:38:53.622Z,38.30
2023-04-16T19:41:20.832Z,39.72
2023-04-16T19:43:47.910Z,40.67
2023-04-16T19:46:15.499Z,40.95
2023-04-16T19:48:42.740Z,35.67
2023-04-16T19:51:09.825Z,35.70
2023-04-16T19:53:37.256Z,33.58
2023-04-16T19:56:04.398Z,33.25
2023-04-16T19:58:31.567Z,36.60
2023-04-16T20:00:58.968Z,33.42
2023-04-16T20:03:26.160Z,31.02
2023-04-16T20:05:53.312Z,36.15
2023-04-16T20:08:20.463Z,33.75
2023-04-16T20:10:47.592Z,34.67
2023-04-16T20:13:16.093Z,33.50
2023-04-16T20:15:45.173Z,31.20
2023-04-16T20:18:12.836Z,34.13
2023-04-16T20:20:40.008Z,31.30
2023-04-16T20:23:07.129Z,29.10
2023-04-16T20:25:34.223Z,30.90
2023-04-16T20:28:01.331Z,30.52
2023-04-16T20:30:29.519Z,31.25
2023-04-16T20:32:56.809Z,31.40
2023-04-16T20:35:23.920Z,31.40
2023-04-16T20:37:51.063Z,29.55
2023-04-16T20:40:18.131Z,29.92
2023-04-16T20:42:50.824Z,31.88
2023-04-16T20:45:18.066Z,33.13
2023-04-16T20:47:45.182Z,28.75
2023-04-16T20:50:12.335Z,32.92
2023-04-16T20:52:39.500Z,28.70
2023-04-16T20:55:08.021Z,33.05
2023-04-16T20:57:35.133Z,29.80
2023-04-16T21:00:02.304Z,29.27
2023-04-16T21:02:29.612Z,29.67
2023-04-16T21:04:56.850Z,29.67
2023-04-16T21:07:24.139Z,29.77
2023-04-16T21:09:51.232Z,30.65
2023-04-16T21:12:18.301Z,30.13
2023-04-16T21:14:45.581Z,31.30
2023-04-16T21:17:12.665Z,29.85
2023-04-16T21:19:40.189Z,30.48
2023-04-16T21:22:07.358Z,33.97
2023-04-16T21:24:34.451Z,29.50
2023-04-16T21:27:01.799Z,30.27
2023-04-16T21:29:29.408Z,31.38
2023-04-16T21:31:56.634Z,30.42
2023-04-16T21:34:23.855Z,29.70
2023-04-16T21:36:51.042Z,27.83
2023-04-16T21:39:19.748Z,31.67
2023-04-16T21:41:46.939Z,30.50
2023-04-16T21:44:15.189Z,30.85
2023-04-16T21:46:42.381Z,31.35
2023-04-16T21:49:09.835Z,29.65
2023-04-16T21:51:38.621Z,28.17
2023-04-16T21:54:07.169Z,29.45
2023-04-16T21:56:34.249Z,29.65
2023-04-16T21:59:01.393Z,30.25
2023-04-16T22:01:28.614Z,31.20
2023-04-16T22:03:55.854Z,30.80
2023-04-16T22:06:23.104Z,28.85
2023-04-16T22:08:50.275Z,35.65
2023-04-16T22:11:17.451Z,32.38
2023-04-16T22:13:46.234Z,32.17
2023-04-16T22:16:13.413Z,28.80
2023-04-16T22:18:41.004Z,28.85
2023-04-16T22:21:08.184Z,28.40
2023-04-16T22:23:35.320Z,27.65
2023-04-16T22:26:02.916Z,29.40
2023-04-16T22:28:30.227Z,28.42
2023-04-16T22:30:57.346Z,33.63
2023-04-16T22:33:24.482Z,29.60
2023-04-16T22:35:51.643Z,28.85
2023-04-16T22:38:18.841Z,29.48
2023-04-16T22:40:48.488Z,30.58
2023-04-16T22:43:17.617Z,28.17
2023-04-16T22:45:46.221Z,33.53
2023-04-16T22:48:13.517Z,27.35
2023-04-16T22:50:41.375Z,27.15
2023-04-16T22:53:08.510Z,27.90
2023-04-16T22:55:35.734Z,25.48
2023-04-16T22:58:02.922Z,28.60
2023-04-16T23:00:30.014Z,31.88
2023-04-16T23:02:57.239Z,31.95
2023-04-16T23:05:24.555Z,31.17
2023-04-16T23:07:51.644Z,33.05
2023-04-16T23:10:18.728Z,31.92
2023-04-16T23:12:46.055Z,28.50
2023-04-16T23:15:13.164Z,32.38
2023-04-16T23:17:40.427Z,28.00
2023-04-16T23:20:10.266Z,27.88
2023-04-16T23:22:37.338Z,27.25
2023-04-16T23:25:04.557Z,30.15
2023-04-16T23:27:32.534Z,25.85
2023-04-16T23:29:59.678Z,32.05
2023-04-16T23:32:27.164Z,31.45
2023-04-16T23:34:54.427Z,30.52
2023-04-16T23:37:21.522Z,28.60
2023-04-16T23:39:48.621Z,30.45
2023-04-16T23:42:15.794Z,30.48
2023-04-16T23:44:42.867Z,27.73
2023-04-16T23:47:10.032Z,29.15
2023-04-16T23:49:37.464Z,29.02
2023-04-16T23:52:04.702Z,30.73
2023-04-16T23:54:31.847Z,30.23
2023-04-16T23:56:59.214Z,28.75
2023-04-16T23:59:26.316Z,29.02
